Time;durP1;ratioP1;P1;durP2;ratioP2;P2;SDS_P1;SDS_P2;PMS_P1;PMS_P2;Temp;Humidity;BMP_temperature;BMP_pressure;BME280_temperature;BME280_humidity;BME280_pressure;Samples;Min_cycle;Max_cycle;Signal;HPM_P1;HPM_P2
2020/12/11 00:02:21;;;;;;;50.13;19.53;;;;;;;1.83;100.00;95186.94;5079367;28;20199;-69
2020/12/11 00:04:47;;;;;;;52.73;19.73;;;;;;;1.82;100.00;95187.06;5079535;28;20700;-69
2020/12/11 00:07:13;;;;;;;73.63;25.97;;;;;;;1.83;100.00;95179.13;5078721;28;20204;-69
2020/12/11 00:09:39;;;;;;;52.90;20.27;;;;;;;1.76;100.00;95182.47;5079082;28;20265;-69
2020/12/11 00:12:05;;;;;;;54.50;21.80;;;;;;;1.78;100.00;95177.94;5079219;28;20196;-69
2020/12/11 00:14:31;;;;;;;50.33;19.20;;;;;;;1.83;100.00;95173.09;5079498;28;20222;-69
2020/12/11 00:16:57;;;;;;;39.70;17.67;;;;;;;1.80;100.00;95177.81;5078282;28;20207;-69
2020/12/11 00:19:23;;;;;;;45.33;17.17;;;;;;;1.77;100.00;95165.94;5078938;28;20272;-69
2020/12/11 00:21:50;;;;;;;40.23;16.27;;;;;;;1.80;100.00;95168.22;5079257;28;20200;-69
2020/12/11 00:24:16;;;;;;;43.13;17.87;;;;;;;1.80;100.00;95171.63;5079002;28;20257;-69
2020/12/11 00:26:42;;;;;;;38.40;16.93;;;;;;;1.84;100.00;95170.34;5077998;28;20203;-69
2020/12/11 00:29:08;;;;;;;39.57;15.67;;;;;;;1.74;100.00;95168.81;5078846;28;21089;-69
2020/12/11 00:31:34;;;;;;;42.30;17.33;;;;;;;1.82;100.00;95168.91;5078797;28;20228;-69
2020/12/11 00:34:00;;;;;;;36.90;16.20;;;;;;;1.77;100.00;95163.34;5078837;28;20204;-69
2020/12/11 00:36:26;;;;;;;36.23;15.77;;;;;;;1.78;100.00;95158.94;5078232;28;20226;-69
2020/12/11 00:38:53;;;;;;;34.60;15.33;;;;;;;1.74;100.00;95152.44;5078937;28;20291;-69
2020/12/11 00:41:19;;;;;;;40.27;17.37;;;;;;;1.75;100.00;95152.28;5078305;28;20202;-69
2020/12/11 00:43:45;;;;;;;45.03;18.27;;;;;;;1.72;100.00;95152.59;5078685;28;20207;-69
2020/12/11 00:46:12;;;;;;;36.63;15.57;;;;;;;1.70;100.00;95143.31;5078089;28;20915;-69
2020/12/11 00:48:38;;;;;;;34.80;15.23;;;;;;;1.70;100.00;95140.72;5078592;28;20203;-69
2020/12/11 00:51:04;;;;;;;33.70;14.33;;;;;;;1.66;100.00;95132.41;5078177;28;20635;-69
2020/12/11 00:53:30;;;;;;;34.10;15.00;;;;;;;1.52;100.00;95138.13;5078940;28;21237;-69
2020/12/11 00:55:57;;;;;;;32.77;15.70;;;;;;;1.51;100.00;95138.28;5078076;28;20204;-69
2020/12/11 00:58:23;;;;;;;34.77;15.00;;;;;;;1.46;100.00;95133.53;5077736;28;20223;-69
2020/12/11 01:00:49;;;;;;;32.70;14.17;;;;;;;1.54;100.00;95130.19;5078091;28;20653;-69
2020/12/11 01:03:15;;;;;;;31.90;14.53;;;;;;;1.55;100.00;95135.22;5078321;28;20264;-69
2020/12/11 01:05:41;;;;;;;29.50;13.67;;;;;;;1.58;100.00;95132.34;5077362;28;20313;-69
2020/12/11 01:08:07;;;;;;;31.80;14.40;;;;;;;1.67;100.00;95135.81;5078368;28;20224;-69
2020/12/11 01:10:33;;;;;;;34.73;15.07;;;;;;;1.63;100.00;95135.31;5077315;28;20238;-69
2020/12/11 01:13:00;;;;;;;33.67;13.67;;;;;;;1.74;100.00;95140.25;5078106;28;20204;-69
2020/12/11 01:15:26;;;;;;;36.17;15.70;;;;;;;1.66;100.00;95152.38;5077416;28;20207;-69
2020/12/11 01:17:52;;;;;;;37.13;15.27;;;;;;;1.65;100.00;95156.72;5078091;28;20219;-69
2020/12/11 01:20:18;;;;;;;33.00;14.37;;;;;;;1.63;100.00;95166.47;5078052;28;20215;-69
2020/12/11 01:22:44;;;;;;;33.77;14.23;;;;;;;1.65;100.00;95158.53;5077780;28;20210;-69
2020/12/11 01:25:10;;;;;;;35.10;14.70;;;;;;;1.67;100.00;95156.56;5077496;28;20294;-69
2020/12/11 01:27:36;;;;;;;33.33;14.80;;;;;;;1.67;100.00;95147.03;5077642;28;20663;-69
2020/12/11 01:30:04;;;;;;;32.83;15.20;;;;;;;1.73;100.00;95133.41;5077524;28;20322;-69
2020/12/11 01:32:31;;;;;;;33.43;15.93;;;;;;;1.73;100.00;95133.41;5077823;28;20282;-69
2020/12/11 01:34:57;;;;;;;31.63;14.80;;;;;;;1.80;100.00;95136.25;5077762;28;20208;-69
2020/12/11 01:37:23;;;;;;;29.80;13.90;;;;;;;1.71;100.00;95137.16;5077288;28;21281;-69
2020/12/11 01:39:49;;;;;;;30.10;14.73;;;;;;;1.83;100.00;95139.34;5077309;28;20311;-69
2020/12/11 01:42:15;;;;;;;33.27;15.30;;;;;;;1.78;100.00;95138.97;5077574;28;20205;-69
2020/12/11 01:44:47;;;;;;;34.67;16.17;;;;;;;1.73;100.00;95120.44;5077707;28;20286;-69
2020/12/11 01:47:14;;;;;;;34.10;16.33;;;;;;;1.75;100.00;95128.09;5076816;28;20226;-69
2020/12/11 01:49:40;;;;;;;31.43;15.03;;;;;;;1.78;100.00;95126.00;5077312;28;20601;-69
2020/12/11 01:52:08;;;;;;;34.10;15.17;;;;;;;1.80;100.00;95122.28;5077253;28;20555;-69
2020/12/11 01:54:34;;;;;;;30.93;14.80;;;;;;;1.83;100.00;95122.00;5077172;28;20997;-69
2020/12/11 01:57:05;;;;;;;31.10;15.00;;;;;;;1.84;100.00;95125.41;5076825;28;20226;-69
2020/12/11 01:59:36;;;;;;;31.17;14.40;;;;;;;1.82;100.00;95116.97;5077093;28;20822;-69
2020/12/11 02:02:03;;;;;;;33.23;14.87;;;;;;;1.73;100.00;95109.25;5077158;28;20654;-69
2020/12/11 02:04:32;;;;;;;29.40;13.90;;;;;;;1.69;100.00;95098.34;5077526;28;20222;-69
2020/12/11 02:06:58;;;;;;;32.70;15.00;;;;;;;1.71;100.00;95103.41;5077053;28;20685;-69
2020/12/11 02:09:25;;;;;;;30.43;14.83;;;;;;;1.71;100.00;95101.63;5076697;28;20224;-69
2020/12/11 02:11:51;;;;;;;29.83;14.47;;;;;;;1.67;100.00;95089.91;5076742;28;20227;-69
2020/12/11 02:14:17;;;;;;;33.33;14.70;;;;;;;1.64;100.00;95092.78;5077205;28;21032;-69
2020/12/11 02:16:43;;;;;;;31.70;14.90;;;;;;;1.72;100.00;95097.22;5075312;28;20215;-69
2020/12/11 02:19:09;;;;;;;31.30;14.70;;;;;;;1.65;100.00;95091.03;5076676;28;20220;-69
2020/12/11 02:21:36;;;;;;;31.87;14.27;;;;;;;1.59;100.00;95086.44;5076732;28;20200;-69
2020/12/11 02:24:02;;;;;;;32.67;14.67;;;;;;;1.68;100.00;95080.31;5076427;28;20211;-69
2020/12/11 02:26:28;;;;;;;35.33;14.60;;;;;;;1.54;100.00;95079.09;5075848;28;20651;-69
2020/12/11 02:28:54;;;;;;;30.07;14.17;;;;;;;1.65;100.00;95078.03;5076928;28;20227;-69
2020/12/11 02:31:20;;;;;;;28.87;13.37;;;;;;;1.63;100.00;95085.16;5076817;28;20224;-69
2020/12/11 02:33:46;;;;;;;30.10;13.63;;;;;;;1.75;100.00;95078.78;5076450;28;20303;-69
2020/12/11 02:36:12;;;;;;;30.90;14.53;;;;;;;1.72;100.00;95066.06;5076487;28;20203;-69
2020/12/11 02:38:39;;;;;;;31.67;13.93;;;;;;;1.61;100.00;95067.13;5076615;28;21066;-69
2020/12/11 02:41:08;;;;;;;33.50;15.07;;;;;;;1.67;100.00;95063.13;5076701;28;20199;-69
2020/12/11 02:43:37;;;;;;;29.43;14.07;;;;;;;1.73;100.00;95058.13;5076587;28;20211;-69
2020/12/11 02:46:04;;;;;;;28.57;13.23;;;;;;;1.79;100.00;95052.34;5076055;28;20240;-69
2020/12/11 02:48:30;;;;;;;31.20;14.33;;;;;;;1.76;100.00;95047.44;5076853;28;20222;-69
2020/12/11 02:50:56;;;;;;;29.60;14.47;;;;;;;1.75;100.00;95040.63;5076137;28;20239;-69
2020/12/11 02:53:22;;;;;;;32.90;15.63;;;;;;;1.61;100.00;95033.41;5076847;28;20203;-69
2020/12/11 02:55:49;;;;;;;28.33;13.50;;;;;;;1.63;100.00;95036.66;5075782;28;20222;-69
2020/12/11 02:58:15;;;;;;;32.43;14.47;;;;;;;1.60;100.00;95042.13;5076611;28;20200;-69
2020/12/11 03:00:41;;;;;;;31.57;14.53;;;;;;;1.67;100.00;95032.78;5076262;28;20230;-69
2020/12/11 03:03:07;;;;;;;31.43;14.13;;;;;;;1.59;100.00;95035.34;5076575;28;20295;-69
2020/12/11 03:05:33;;;;;;;30.17;13.90;;;;;;;1.54;100.00;95024.59;5075370;28;20765;-69
2020/12/11 03:07:59;;;;;;;29.30;14.60;;;;;;;1.61;100.00;95004.03;5076589;28;20257;-69
2020/12/11 03:10:25;;;;;;;30.97;13.87;;;;;;;1.61;100.00;94998.84;5076634;28;20322;-69
2020/12/11 03:12:52;;;;;;;29.80;14.00;;;;;;;1.56;100.00;94998.50;5075954;28;21017;-69
2020/12/11 03:15:18;;;;;;;29.97;14.13;;;;;;;1.67;100.00;95006.84;5076049;28;20207;-69
2020/12/11 03:17:44;;;;;;;29.33;14.03;;;;;;;1.62;100.00;95019.47;5077129;28;20200;-69
2020/12/11 03:20:10;;;;;;;30.37;14.07;;;;;;;1.61;100.00;95022.22;5075786;28;20222;-69
2020/12/11 03:22:36;;;;;;;30.37;14.43;;;;;;;1.58;100.00;95014.72;5076489;28;20286;-69
2020/12/11 03:25:02;;;;;;;28.10;14.13;;;;;;;1.50;100.00;95015.50;5075732;28;20693;-69
2020/12/11 03:27:28;;;;;;;33.13;15.17;;;;;;;1.29;100.00;95001.22;5077896;28;20207;-69
2020/12/11 03:29:54;;;;;;;33.87;15.80;;;;;;;1.26;100.00;95002.34;5079574;28;20311;-69
2020/12/11 03:32:20;;;;;;;35.20;15.63;;;;;;;1.32;100.00;94990.53;5079769;28;21460;-69
2020/12/11 03:34:46;;;;;;;31.73;13.97;;;;;;;1.46;100.00;94988.19;5080017;28;20289;-69
2020/12/11 03:37:15;;;;;;;34.47;15.30;;;;;;;1.45;100.00;94983.16;5079277;28;20692;-69
2020/12/11 03:39:42;;;;;;;32.37;15.43;;;;;;;1.40;100.00;94972.41;5079471;28;20338;-69
2020/12/11 03:42:08;;;;;;;31.67;14.80;;;;;;;1.43;100.00;94967.75;5079797;28;20199;-69
2020/12/11 03:44:34;;;;;;;28.93;13.27;;;;;;;1.54;100.00;94975.28;5078430;28;20211;-69
2020/12/11 03:47:01;;;;;;;29.97;14.67;;;;;;;1.71;100.00;94966.63;5078826;28;20601;-69
2020/12/11 03:49:27;;;;;;;29.93;13.73;;;;;;;1.70;100.00;94975.34;5079744;28;20726;-69
2020/12/11 03:51:53;;;;;;;31.03;13.90;;;;;;;1.80;100.00;94966.47;5079343;28;20227;-69
2020/12/11 03:54:19;;;;;;;27.27;14.03;;;;;;;1.72;100.00;94952.66;5079541;28;20294;-69
2020/12/11 03:56:47;;;;;;;29.17;14.20;;;;;;;1.65;100.00;94954.25;5078932;28;20200;-69
2020/12/11 03:59:13;;;;;;;31.33;14.80;;;;;;;1.64;100.00;94949.22;5079358;28;20740;-69
2020/12/11 04:01:39;;;;;;;27.03;13.80;;;;;;;1.63;100.00;94945.81;5079393;28;20196;-69
2020/12/11 04:04:06;;;;;;;29.53;14.43;;;;;;;1.73;100.00;94943.88;5079283;28;20227;-69
2020/12/11 04:06:32;;;;;;;31.97;14.63;;;;;;;1.64;100.00;94947.41;5078593;28;20207;-69
2020/12/11 04:08:58;;;;;;;41.07;17.87;;;;;;;1.54;100.00;94948.50;5078871;28;20745;-69
2020/12/11 04:11:23;;;;;;;32.33;14.70;;;;;;;1.52;100.00;94935.69;5079368;28;20694;-69
2020/12/11 04:13:49;;;;;;;30.97;14.23;;;;;;;1.49;100.00;94938.59;5079631;28;20811;-69
2020/12/11 04:16:15;;;;;;;31.67;15.20;;;;;;;1.63;100.00;94926.81;5078274;28;21134;-69
2020/12/11 04:18:42;;;;;;;28.53;14.20;;;;;;;1.54;100.00;94922.53;5079257;28;20208;-69
2020/12/11 04:21:11;;;;;;;31.07;14.77;;;;;;;1.47;100.00;94922.34;5079505;28;20195;-69
2020/12/11 04:23:37;;;;;;;31.73;15.10;;;;;;;1.46;100.00;94920.72;5078388;28;20295;-69
2020/12/11 04:26:03;;;;;;;30.83;15.07;;;;;;;1.43;100.00;94921.03;5077959;28;20612;-69
2020/12/11 04:28:29;;;;;;;35.90;15.73;;;;;;;1.41;100.00;94923.00;5079572;28;20762;-69
2020/12/11 04:30:55;;;;;;;38.33;17.27;;;;;;;1.36;100.00;94925.22;5078597;28;20749;-69
2020/12/11 04:33:21;;;;;;;40.37;17.63;;;;;;;1.33;100.00;94928.09;5078899;28;20731;-69
2020/12/11 04:35:47;;;;;;;39.00;17.33;;;;;;;1.18;100.00;94926.22;5077910;28;20719;-69
2020/12/11 04:38:14;;;;;;;53.37;22.90;;;;;;;1.31;100.00;94919.69;5078240;28;20200;-69
2020/12/11 04:40:40;;;;;;;45.57;18.53;;;;;;;1.36;100.00;94914.84;5078348;28;20733;-69
2020/12/11 04:43:09;;;;;;;42.80;18.00;;;;;;;1.40;100.00;94912.75;5078764;28;20199;-69
2020/12/11 04:45:37;;;;;;;49.53;20.47;;;;;;;1.34;100.00;94900.41;5077762;28;20211;-69
2020/12/11 04:48:03;;;;;;;39.20;17.83;;;;;;;1.33;100.00;94903.97;5078497;28;20557;-69
2020/12/11 04:50:29;;;;;;;60.53;22.97;;;;;;;1.30;100.00;94897.28;5078495;28;20220;-69
2020/12/11 04:52:57;;;;;;;52.63;20.37;;;;;;;1.39;100.00;94898.97;5078338;28;20548;-69
2020/12/11 04:55:23;;;;;;;53.27;21.37;;;;;;;1.27;100.00;94900.19;5077923;28;20228;-69
2020/12/11 04:57:52;;;;;;;57.10;21.20;;;;;;;1.33;100.00;94891.78;5078325;28;20214;-69
2020/12/11 05:00:19;;;;;;;54.97;21.30;;;;;;;1.39;100.00;94895.56;5078590;28;20223;-69
2020/12/11 05:02:46;;;;;;;58.57;23.33;;;;;;;1.31;100.00;94891.13;5077699;28;20809;-69
2020/12/11 05:05:13;;;;;;;42.60;17.83;;;;;;;1.30;100.00;94878.31;5077372;28;20196;-69
2020/12/11 05:07:40;;;;;;;35.73;16.00;;;;;;;1.24;100.00;94897.91;5078288;28;20204;-69
2020/12/11 05:10:07;;;;;;;34.07;15.77;;;;;;;1.16;100.00;94896.22;5078300;28;20219;-69
2020/12/11 05:12:35;;;;;;;35.07;16.07;;;;;;;1.06;100.00;94890.31;5078078;28;20204;-69
2020/12/11 05:15:04;;;;;;;33.30;15.53;;;;;;;1.18;100.00;94894.31;5077062;28;20200;-70
2020/12/11 05:17:31;;;;;;;34.97;14.97;;;;;;;1.07;100.00;94897.97;5078189;28;20200;-69
2020/12/11 05:19:58;;;;;;;38.03;16.00;;;;;;;1.09;100.00;94892.63;5077146;28;20223;-69
2020/12/11 05:22:25;;;;;;;35.53;16.70;;;;;;;1.19;100.00;94887.16;5078252;28;20192;-70
2020/12/11 05:24:53;;;;;;;45.37;18.60;;;;;;;1.12;100.00;94875.00;5077555;28;20701;-69
2020/12/11 05:27:34;;;;;;;43.23;19.33;;;;;;;1.14;100.00;94882.59;5077047;28;20203;-69
2020/12/11 05:30:18;;;;;;;43.43;18.47;;;;;;;1.18;100.00;94871.75;5076904;28;20222;-69
2020/12/11 05:32:46;;;;;;;42.00;18.50;;;;;;;1.12;100.00;94871.56;5077716;28;20211;-69
2020/12/11 05:35:25;;;;;;;40.40;16.10;;;;;;;1.04;100.00;94877.50;5077089;28;20899;-69
2020/12/11 05:37:53;;;;;;;37.67;16.07;;;;;;;1.16;100.00;94875.47;5077924;28;20214;-69
2020/12/11 05:40:20;;;;;;;35.50;15.70;;;;;;;1.14;100.00;94878.22;5078191;28;20234;-69
2020/12/11 05:43:09;;;;;;;40.50;17.63;;;;;;;1.23;100.00;94875.53;5077066;28;20647;-70
2020/12/11 05:45:36;;;;;;;41.37;17.20;;;;;;;1.15;100.00;94876.47;5076468;28;20211;-69
2020/12/11 05:48:03;;;;;;;41.10;17.50;;;;;;;1.18;100.00;94870.97;5077514;28;20196;-69
2020/12/11 05:50:29;;;;;;;36.73;15.33;;;;;;;1.20;100.00;94862.84;5077303;28;20239;-69
2020/12/11 05:52:55;;;;;;;31.23;14.67;;;;;;;1.18;100.00;94865.78;5076835;28;20671;-69
2020/12/11 05:55:23;;;;;;;37.30;17.13;;;;;;;1.14;100.00;94867.84;5076793;28;20214;-69
2020/12/11 05:57:52;;;;;;;37.00;16.20;;;;;;;1.14;100.00;94865.25;5077422;28;20208;-69
2020/12/11 06:00:19;;;;;;;38.43;15.83;;;;;;;1.05;100.00;94857.59;5077274;28;20278;-69
2020/12/11 06:02:47;;;;;;;32.63;14.37;;;;;;;1.09;100.00;94849.34;5077198;28;20319;-69
2020/12/11 06:05:15;;;;;;;32.00;14.30;;;;;;;1.16;100.00;94860.75;5076670;28;20299;-69
2020/12/11 06:07:43;;;;;;;34.83;15.70;;;;;;;1.05;100.00;94853.22;5077337;28;20962;-69
2020/12/11 06:10:10;;;;;;;35.33;15.43;;;;;;;1.05;100.00;94855.00;5076619;28;20247;-69
2020/12/11 06:12:36;;;;;;;34.23;15.47;;;;;;;1.11;100.00;94851.78;5076645;28;20223;-69
2020/12/11 06:15:05;;;;;;;33.10;15.50;;;;;;;1.05;100.00;94847.22;5076253;28;20204;-69
2020/12/11 06:17:36;;;;;;;32.93;15.53;;;;;;;1.05;100.00;94849.81;5076930;28;20199;-69
2020/12/11 06:20:06;;;;;;;35.63;15.37;;;;;;;1.07;100.00;94847.88;5076642;28;20230;-69
2020/12/11 06:22:32;;;;;;;38.50;16.47;;;;;;;1.19;100.00;94846.66;5077288;28;20292;-69
2020/12/11 06:24:58;;;;;;;36.33;16.37;;;;;;;1.13;100.00;94844.66;5076760;28;20736;-69
2020/12/11 06:27:33;;;;;;;38.13;17.17;;;;;;;1.07;100.00;94850.47;5076686;28;20342;-70
2020/12/11 06:30:23;;;;;;;43.03;17.83;;;;;;;1.11;100.00;94841.41;5076526;28;20230;-70
2020/12/11 06:32:50;;;;;;;41.40;17.77;;;;;;;1.10;100.00;94844.97;5076621;28;20871;-70
2020/12/11 06:35:16;;;;;;;40.13;16.80;;;;;;;1.01;100.00;94848.50;5076075;28;20202;-70
2020/12/11 06:37:42;;;;;;;44.57;19.43;;;;;;;1.11;100.00;94849.19;5077124;28;20196;-70
2020/12/11 06:40:08;;;;;;;44.60;18.93;;;;;;;1.07;100.00;94853.88;5076664;28;20235;-70
2020/12/11 06:42:47;;;;;;;40.23;17.13;;;;;;;0.88;100.00;94856.69;5076736;28;20235;-70
2020/12/11 06:45:18;;;;;;;40.67;18.00;;;;;;;0.74;100.00;94864.19;5075563;28;21007;-70
2020/12/11 06:47:48;;;;;;;41.43;17.07;;;;;;;0.68;100.00;94863.00;5076515;28;20218;-70
2020/12/11 06:50:15;;;;;;;37.77;16.43;;;;;;;0.74;100.00;94857.22;5076126;28;20238;-70
2020/12/11 06:52:41;;;;;;;44.67;18.17;;;;;;;0.79;100.00;94854.16;5076566;28;20213;-70
2020/12/11 06:55:07;;;;;;;43.93;18.60;;;;;;;0.63;100.00;94857.47;5076603;28;20199;-70
2020/12/11 06:57:41;;;;;;;43.07;18.40;;;;;;;0.66;100.00;94856.34;5076696;28;20204;-70
2020/12/11 07:00:31;;;;;;;42.67;17.43;;;;;;;0.66;100.00;94856.34;5076184;28;20906;-70
2020/12/11 07:03:30;;;;;;;45.10;18.67;;;;;;;0.61;100.00;94854.22;5079247;28;20199;-70
2020/12/11 07:06:05;;;;;;;41.90;17.50;;;;;;;0.64;100.00;94861.69;5017061;28;20200;-70
2020/12/11 07:08:32;;;;;;;46.57;17.97;;;;;;;0.59;100.00;94860.53;5069608;28;20198;-70
2020/12/11 07:11:13;;;;;;;43.43;17.20;;;;;;;0.64;100.00;94847.94;5080365;28;20220;-70
2020/12/11 07:13:50;;;;;;;46.10;18.33;;;;;;;0.59;100.00;94857.94;5080487;28;20267;-70
2020/12/11 07:16:16;;;;;;;44.70;17.93;;;;;;;0.58;100.00;94843.34;5079378;28;21102;-70
2020/12/11 07:18:43;;;;;;;42.23;17.50;;;;;;;0.51;100.00;94844.09;5080082;28;20195;-70
2020/12/11 07:21:11;;;;;;;45.07;18.63;;;;;;;0.53;100.00;94837.78;5079813;28;20198;-70
2020/12/11 07:23:37;;;;;;;42.40;17.23;;;;;;;0.51;100.00;94834.56;5080334;28;20199;-70
2020/12/11 07:26:04;;;;;;;41.30;17.67;;;;;;;0.58;100.00;94834.75;5079867;28;20210;-70
2020/12/11 07:28:30;;;;;;;43.03;18.37;;;;;;;0.48;100.00;94827.06;5079887;28;21138;-70
2020/12/11 07:30:56;;;;;;;43.83;18.97;;;;;;;0.57;100.00;94820.97;5079973;28;20292;-70
2020/12/11 07:33:21;;;;;;;47.17;19.57;;;;;;;0.62;100.00;94822.16;5079899;28;20700;-70
2020/12/11 07:35:49;;;;;;;44.33;19.30;;;;;;;0.53;100.00;94819.66;5079775;28;20203;-70
2020/12/11 07:38:18;;;;;;;43.87;17.80;;;;;;;0.61;100.00;94817.94;5080103;28;20211;-70
2020/12/11 07:40:52;;;;;;;43.93;17.77;;;;;;;0.58;100.00;94813.03;5079855;28;20224;-70
2020/12/11 07:43:19;;;;;;;47.50;18.10;;;;;;;0.60;100.00;94812.91;5080217;28;20209;-70
2020/12/11 07:45:46;;;;;;;48.17;18.77;;;;;;;0.75;100.00;94806.19;5078657;28;20200;-70
2020/12/11 07:48:12;;;;;;;48.70;19.33;;;;;;;0.80;100.00;94806.53;5080108;28;20196;-72
2020/12/11 07:50:38;;;;;;;49.47;18.70;;;;;;;0.77;100.00;94805.06;5079686;28;20729;-70
2020/12/11 07:53:08;;;;;;;41.87;17.30;;;;;;;0.68;100.00;94798.22;5079412;28;20725;-70
2020/12/11 07:55:35;;;;;;;40.37;17.43;;;;;;;0.60;100.00;94805.94;5078548;28;20210;-70
2020/12/11 07:58:02;;;;;;;50.33;18.67;;;;;;;0.62;100.00;94792.84;5079890;28;20677;-70
2020/12/11 08:00:29;;;;;;;42.37;16.83;;;;;;;0.70;100.00;94787.69;5079228;28;20308;-70
2020/12/11 08:02:56;;;;;;;43.67;19.17;;;;;;;0.70;100.00;94779.91;5079606;28;20772;-70
2020/12/11 08:05:23;;;;;;;49.50;21.10;;;;;;;0.66;100.00;94779.44;5079161;28;20200;-70
2020/12/11 08:07:51;;;;;;;47.27;19.63;;;;;;;0.60;100.00;94779.22;5079411;28;20206;-70
2020/12/11 08:10:19;;;;;;;44.47;17.57;;;;;;;1.28;100.00;94761.72;5079226;28;20235;-70
2020/12/11 08:12:47;;;;;;;41.93;15.07;;;;;;;2.37;100.00;94757.00;5078812;28;20207;-70
2020/12/11 08:15:31;;;;;;;39.88;21.08;;;;;;;1.91;100.00;94755.88;5076264;28;20508;-70
2020/12/11 08:18:19;;;;;;;39.47;17.83;;;;;;;1.53;100.00;94753.03;5079478;28;20215;-70
2020/12/11 08:20:50;;;;;;;37.37;16.43;;;;;;;1.17;100.00;94750.00;5079384;28;20307;-70
2020/12/11 08:23:39;;;;;;;39.43;17.10;;;;;;;0.96;100.00;94747.81;5078998;28;20239;-70
2020/12/11 08:26:10;;;;;;;37.87;16.17;;;;;;;0.86;100.00;94748.91;5078119;28;20204;-70
2020/12/11 08:28:37;;;;;;;42.00;16.73;;;;;;;0.63;100.00;94758.19;5078556;28;20611;-70
2020/12/11 08:31:28;;;;;;;39.37;15.87;;;;;;;0.58;100.00;94744.88;5079255;28;20843;-70
2020/12/11 08:34:02;;;;;;;40.47;16.70;;;;;;;0.58;100.00;94745.66;5063087;28;20636;-70
2020/12/11 08:36:30;;;;;;;40.40;16.53;;;;;;;0.54;100.00;94733.19;5078479;28;20202;-70
2020/12/11 08:39:24;;;;;;;38.93;14.80;;;;;;;0.57;100.00;94732.88;5079325;28;20219;-70
2020/12/11 08:42:16;;;;;;;39.50;15.53;;;;;;;0.53;100.00;94723.78;5078635;28;20203;-70
2020/12/11 08:50:29;;;;;;;40.93;18.03;;;;;;;0.64;100.00;94711.38;5076744;28;20238;-70
2020/12/11 08:52:55;;;;;;;40.67;17.67;;;;;;;0.67;100.00;94713.66;5078457;28;20198;-70
2020/12/11 08:55:21;;;;;;;71.30;22.30;;;;;;;0.59;100.00;94723.19;5077758;28;20294;-70
2020/12/11 08:57:49;;;;;;;97.40;28.53;;;;;;;0.44;100.00;94729.88;5078616;28;20245;-70
2020/12/11 09:00:17;;;;;;;56.73;18.87;;;;;;;0.38;100.00;94730.53;5079094;28;20318;-69
2020/12/11 09:02:43;;;;;;;65.87;21.57;;;;;;;0.30;100.00;94738.22;5077454;28;20211;-69
2020/12/11 09:05:09;;;;;;;81.80;25.73;;;;;;;0.28;100.00;94745.34;5077376;28;20211;-69
2020/12/11 09:07:35;;;;;;;72.50;24.40;;;;;;;0.27;100.00;94746.31;5078727;28;20196;-69
2020/12/11 09:10:01;;;;;;;53.70;18.53;;;;;;;0.39;100.00;94747.66;5078565;28;20231;-70
2020/12/11 09:12:27;;;;;;;68.50;23.53;;;;;;;0.37;100.00;94747.03;5077843;28;20226;-70
2020/12/11 09:14:53;;;;;;;61.90;20.73;;;;;;;0.42;100.00;94739.59;5077436;28;20210;-69
2020/12/11 09:17:20;;;;;;;41.90;19.00;;;;;;;0.35;100.00;94740.38;5078005;28;20664;-69
2020/12/11 09:19:46;;;;;;;38.77;16.27;;;;;;;0.47;100.00;94742.56;5078026;28;20223;-70
2020/12/11 09:22:12;;;;;;;40.93;16.87;;;;;;;0.49;100.00;94740.59;5077742;28;20265;-69
2020/12/11 09:24:38;;;;;;;32.67;14.57;;;;;;;0.42;100.00;94749.13;5077936;28;20283;-69
2020/12/11 09:27:05;;;;;;;33.63;14.97;;;;;;;0.34;100.00;94738.72;5076528;28;20231;-70
2020/12/11 09:29:34;;;;;;;39.97;16.03;;;;;;;0.54;100.00;94733.19;5077246;28;20223;-70
2020/12/11 09:32:01;;;;;;;67.67;25.73;;;;;;;0.65;100.00;94725.16;5077513;28;20227;-70
2020/12/11 09:34:31;;;;;;;48.90;18.87;;;;;;;0.72;100.00;94723.56;5077976;28;20214;-70
2020/12/11 09:36:57;;;;;;;39.37;16.00;;;;;;;0.85;100.00;94722.19;5077013;28;20199;-70
2020/12/11 09:39:23;;;;;;;39.27;16.47;;;;;;;0.64;100.00;94719.16;5077843;28;20218;-70
2020/12/11 09:41:54;;;;;;;38.47;15.13;;;;;;;0.70;100.00;94717.72;5077497;28;20238;-70
2020/12/11 09:44:41;;;;;;;36.27;14.03;;;;;;;0.82;100.00;94717.28;5077502;28;20213;-70
2020/12/11 09:47:36;;;;;;;35.67;14.87;;;;;;;1.03;100.00;94709.13;5076546;28;20204;-70
2020/12/11 09:50:24;;;;;;;34.97;14.93;;;;;;;1.26;100.00;94711.78;5077121;28;20304;-70
2020/12/11 09:52:54;;;;;;;30.00;13.20;;;;;;;1.23;100.00;94703.50;5076809;28;20237;-70
2020/12/11 09:55:20;;;;;;;32.63;13.47;;;;;;;1.31;100.00;94704.34;5076297;28;20856;-70
2020/12/11 09:57:46;;;;;;;30.87;13.50;;;;;;;1.47;100.00;94699.16;5077066;28;20803;-70
2020/12/11 10:00:12;;;;;;;38.07;15.80;;;;;;;1.39;100.00;94696.56;5076669;28;20246;-70
2020/12/11 10:02:52;;;;;;;34.30;14.43;;;;;;;1.44;100.00;94699.50;5077475;28;20209;-70
2020/12/11 10:05:19;;;;;;;29.93;12.93;;;;;;;1.44;100.00;94709.06;5076937;28;20757;-70
2020/12/11 10:07:45;;;;;;;30.00;13.80;;;;;;;1.36;100.00;94707.28;5076790;28;20621;-70
2020/12/11 10:10:11;;;;;;;30.70;14.63;;;;;;;1.38;100.00;94700.13;5076543;28;20262;-70
2020/12/11 10:12:37;;;;;;;41.83;16.57;;;;;;;1.43;100.00;94712.66;5078009;28;20761;-70
2020/12/11 10:15:06;;;;;;;31.87;14.17;;;;;;;1.29;100.00;94716.66;5076080;28;20207;-70
2020/12/11 10:17:32;;;;;;;35.50;14.77;;;;;;;1.36;100.00;94711.63;5076521;28;20215;-70
2020/12/11 10:19:58;;;;;;;35.53;13.57;;;;;;;1.35;100.00;94710.84;5077120;28;20713;-70
2020/12/11 10:22:25;;;;;;;33.20;13.67;;;;;;;1.23;100.00;94700.91;5077399;28;20608;-70
2020/12/11 10:24:51;;;;;;;37.77;15.13;;;;;;;1.29;100.00;94703.69;5076499;28;20210;-70
2020/12/11 10:27:17;;;;;;;32.60;14.40;;;;;;;1.15;100.00;94702.69;5076351;28;20202;-70
2020/12/11 10:29:43;;;;;;;31.20;14.20;;;;;;;1.26;100.00;94705.78;5076404;28;20231;-69
2020/12/11 10:32:09;;;;;;;31.03;13.60;;;;;;;1.08;100.00;94699.09;5076756;28;20265;-70
2020/12/11 10:34:36;;;;;;;36.50;14.73;;;;;;;1.16;100.00;94705.13;5076445;28;20200;-70
2020/12/11 10:37:05;;;;;;;35.57;15.57;;;;;;;1.05;100.00;94702.00;5075108;28;20561;-70
2020/12/11 10:39:32;;;;;;;40.97;16.37;;;;;;;1.22;100.00;94701.88;5076742;28;20234;-70
2020/12/11 10:42:00;;;;;;;31.83;13.77;;;;;;;1.32;100.00;94697.38;5076795;28;20194;-70
2020/12/11 10:44:26;;;;;;;28.50;11.23;;;;;;;1.20;100.00;94690.84;5077210;28;20210;-70
2020/12/11 10:46:52;;;;;;;35.87;15.23;;;;;;;1.03;100.00;94696.16;5076002;28;20207;-70
2020/12/11 10:49:18;;;;;;;28.17;12.23;;;;;;;0.99;100.00;94692.25;5076200;28;20985;-69
2020/12/11 10:51:46;;;;;;;33.97;13.60;;;;;;;0.98;100.00;94682.84;5076552;28;20316;-70
2020/12/11 10:54:14;;;;;;;32.43;13.40;;;;;;;1.01;100.00;94679.94;5077147;28;20295;-70
2020/12/11 10:56:41;;;;;;;31.37;14.03;;;;;;;0.95;100.00;94683.16;5075368;28;20673;-70
2020/12/11 10:59:07;;;;;;;36.33;14.60;;;;;;;0.67;100.00;94681.75;5076251;28;20238;-70
2020/12/11 11:01:33;;;;;;;34.80;14.90;;;;;;;0.77;100.00;94685.03;5076433;28;20196;-70
2020/12/11 11:04:00;;;;;;;36.63;15.50;;;;;;;1.01;100.00;94674.75;5076264;28;20199;-70
2020/12/11 11:06:28;;;;;;;37.30;15.43;;;;;;;1.08;100.00;94665.38;5075662;28;20703;-70
2020/12/11 11:09:06;;;;;;;38.33;16.30;;;;;;;1.17;100.00;94659.22;5076436;28;20359;-70
2020/12/11 11:11:36;;;;;;;34.73;14.60;;;;;;;1.40;100.00;94655.84;5076270;28;20280;-70
2020/12/11 11:14:19;;;;;;;43.23;15.57;;;;;;;1.48;100.00;94642.91;5076264;28;20200;-70
2020/12/11 11:17:05;;;;;;;33.93;14.37;;;;;;;1.63;100.00;94652.50;5076043;28;20302;-70
2020/12/11 11:19:36;;;;;;;34.33;15.30;;;;;;;1.60;100.00;94654.59;5076011;28;20232;-70
2020/12/11 11:22:19;;;;;;;39.10;15.97;;;;;;;1.44;100.00;94659.75;5076073;28;20952;-70
2020/12/11 11:25:22;;;;;;;62.70;16.90;;;;;;;1.91;100.00;94652.00;5077024;28;20203;-70
2020/12/11 11:27:50;;;;;;;162.53;59.77;;;;;;;3.20;100.00;94643.63;5075938;28;20204;-70
2020/12/11 11:30:18;;;;;;;34.70;15.30;;;;;;;2.48;100.00;94641.34;5076131;28;20224;-70